South Range, Michigan
Current Conditions -  °F | °C
As of 9:53 AM on Tuesday 21 Oct 2014 (Local Time) from KCMX Reporting Station
Broken Clouds Broken Clouds  
Wind Chill: 39°   Ceiling: 1800
Heat Index: 39°   Visibility: 10mi
Dew Point: 30°   Wind: 0mph
Humidity: 70%   Direction: NA
Pressure: 30.25"   Gusts: NA
Location:  47.07°N, 88.64°W
Report Text: KCMX 211353Z AUTO 00000KT 10SM BKN018 04/M01 A3025 RMK AO2 SLP255 T00391011
Loading
Personal Weather Stations






























Interactive Weather Map New forecast layout! Learn more

10-Day Weather Forecast

Advertisements
Track Severe Weather on mobile